sensor_id;sensor_type;location;lat;lon;timestamp;temperature;humidity
17815;DHT22;9031;50.974;11.330;2023-06-05T00:01:11;10.20;99.90
17815;DHT22;9031;50.974;11.330;2023-06-05T00:03:37;10.10;99.90
17815;DHT22;9031;50.974;11.330;2023-06-05T00:06:04;9.80;99.90
17815;DHT22;9031;50.974;11.330;2023-06-05T00:08:30;9.90;99.90
17815;DHT22;9031;50.974;11.330;2023-06-05T00:10:55;9.80;99.90
17815;DHT22;9031;50.974;11.330;2023-06-05T00:13:21;9.70;99.90
17815;DHT22;9031;50.974;11.330;2023-06-05T00:15:46;9.60;99.90
17815;DHT22;9031;50.974;11.330;2023-06-05T00:18:12;9.50;99.90
17815;DHT22;9031;50.974;11.330;2023-06-05T00:20:39;9.40;99.90
17815;DHT22;9031;50.974;11.330;2023-06-05T00:23:05;9.30;99.90
17815;DHT22;9031;50.974;11.330;2023-06-05T00:25:31;9.50;99.90
17815;DHT22;9031;50.974;11.330;2023-06-05T00:27:56;9.50;99.90
17815;DHT22;9031;50.974;11.330;2023-06-05T00:30:22;9.50;99.90
17815;DHT22;9031;50.974;11.330;2023-06-05T00:32:47;9.10;99.90
17815;DHT22;9031;50.974;11.330;2023-06-05T00:35:12;9.00;99.90
17815;DHT22;9031;50.974;11.330;2023-06-05T00:37:39;9.20;99.90
17815;DHT22;9031;50.974;11.330;2023-06-05T00:40:06;9.00;99.90
17815;DHT22;9031;50.974;11.330;2023-06-05T00:42:32;9.00;99.90
17815;DHT22;9031;50.974;11.330;2023-06-05T00:44:57;9.00;99.90
17815;DHT22;9031;50.974;11.330;2023-06-05T00:47:23;8.90;99.90
17815;DHT22;9031;50.974;11.330;2023-06-05T00:49:48;8.70;99.90
17815;DHT22;9031;50.974;11.330;2023-06-05T00:52:15;8.80;99.90
17815;DHT22;9031;50.974;11.330;2023-06-05T00:54:41;8.80;99.90
17815;DHT22;9031;50.974;11.330;2023-06-05T00:57:07;8.90;99.90
17815;DHT22;9031;50.974;11.330;2023-06-05T00:59:33;8.90;99.90
17815;DHT22;9031;50.974;11.330;2023-06-05T01:02:00;8.80;99.90
17815;DHT22;9031;50.974;11.330;2023-06-05T01:04:27;8.80;99.90
17815;DHT22;9031;50.974;11.330;2023-06-05T01:06:54;8.70;99.90
17815;DHT22;9031;50.974;11.330;2023-06-05T01:09:25;8.60;99.90
17815;DHT22;9031;50.974;11.330;2023-06-05T01:11:58;8.50;99.90
17815;DHT22;9031;50.974;11.330;2023-06-05T01:14:31;8.50;99.90
17815;DHT22;9031;50.974;11.330;2023-06-05T01:16:59;8.60;99.90
17815;DHT22;9031;50.974;11.330;2023-06-05T01:19:27;8.60;99.90
17815;DHT22;9031;50.974;11.330;2023-06-05T01:21:57;8.40;99.90
17815;DHT22;9031;50.974;11.330;2023-06-05T01:24:22;8.40;99.90
17815;DHT22;9031;50.974;11.330;2023-06-05T01:30:03;8.30;99.90
17815;DHT22;9031;50.974;11.330;2023-06-05T01:33:00;8.60;99.90
17815;DHT22;9031;50.974;11.330;2023-06-05T01:35:30;8.60;99.90
17815;DHT22;9031;50.974;11.330;2023-06-05T01:38:02;8.70;99.90
17815;DHT22;9031;50.974;11.330;2023-06-05T01:40:35;8.80;99.90
17815;DHT22;9031;50.974;11.330;2023-06-05T01:43:03;8.70;99.90
17815;DHT22;9031;50.974;11.330;2023-06-05T01:45:30;8.60;99.90
17815;DHT22;9031;50.974;11.330;2023-06-05T01:47:56;8.50;99.90
17815;DHT22;9031;50.974;11.330;2023-06-05T01:50:22;8.60;99.90
17815;DHT22;9031;50.974;11.330;2023-06-05T01:52:48;8.40;99.90
17815;DHT22;9031;50.974;11.330;2023-06-05T01:55:19;8.20;99.90
17815;DHT22;9031;50.974;11.330;2023-06-05T01:57:48;8.00;99.90
17815;DHT22;9031;50.974;11.330;2023-06-05T02:00:14;7.60;99.90
17815;DHT22;9031;50.974;11.330;2023-06-05T02:02:45;7.60;99.90
17815;DHT22;9031;50.974;11.330;2023-06-05T02:05:12;7.50;99.90
17815;DHT22;9031;50.974;11.330;2023-06-05T02:07:39;7.60;99.90
17815;DHT22;9031;50.974;11.330;2023-06-05T02:10:06;7.50;99.90
17815;DHT22;9031;50.974;11.330;2023-06-05T02:12:32;7.40;99.90
17815;DHT22;9031;50.974;11.330;2023-06-05T02:14:59;7.40;99.90
17815;DHT22;9031;50.974;11.330;2023-06-05T02:17:24;7.30;99.90
17815;DHT22;9031;50.974;11.330;2023-06-05T02:19:51;7.40;99.90
17815;DHT22;9031;50.974;11.330;2023-06-05T02:22:16;7.40;99.90
17815;DHT22;9031;50.974;11.330;2023-06-05T02:24:42;7.60;99.90
17815;DHT22;9031;50.974;11.330;2023-06-05T02:27:08;7.80;99.90
17815;DHT22;9031;50.974;11.330;2023-06-05T02:29:38;8.00;99.90
17815;DHT22;9031;50.974;11.330;2023-06-05T02:32:05;7.60;99.90
17815;DHT22;9031;50.974;11.330;2023-06-05T02:34:31;7.70;99.90
17815;DHT22;9031;50.974;11.330;2023-06-05T02:37:00;7.90;99.90
17815;DHT22;9031;50.974;11.330;2023-06-05T02:39:26;8.10;99.90
17815;DHT22;9031;50.974;11.330;2023-06-05T02:41:53;8.30;99.90
17815;DHT22;9031;50.974;11.330;2023-06-05T02:44:18;8.30;99.90
17815;DHT22;9031;50.974;11.330;2023-06-05T02:46:44;8.40;99.90
17815;DHT22;9031;50.974;11.330;2023-06-05T02:49:09;8.30;99.90
17815;DHT22;9031;50.974;11.330;2023-06-05T02:51:35;8.10;99.90
17815;DHT22;9031;50.974;11.330;2023-06-05T02:54:01;7.90;99.90
17815;DHT22;9031;50.974;11.330;2023-06-05T02:56:26;7.50;99.90
17815;DHT22;9031;50.974;11.330;2023-06-05T02:58:52;6.90;99.90
17815;DHT22;9031;50.974;11.330;2023-06-05T03:01:18;6.80;99.90
17815;DHT22;9031;50.974;11.330;2023-06-05T03:03:46;6.80;99.90
17815;DHT22;9031;50.974;11.330;2023-06-05T03:06:14;7.10;99.90
17815;DHT22;9031;50.974;11.330;2023-06-05T03:08:43;7.30;99.90
17815;DHT22;9031;50.974;11.330;2023-06-05T03:11:09;7.10;99.90
17815;DHT22;9031;50.974;11.330;2023-06-05T03:13:35;7.10;99.90
17815;DHT22;9031;50.974;11.330;2023-06-05T03:16:00;7.10;99.90
17815;DHT22;9031;50.974;11.330;2023-06-05T03:18:29;7.20;99.90
17815;DHT22;9031;50.974;11.330;2023-06-05T03:20:55;7.10;99.90
17815;DHT22;9031;50.974;11.330;2023-06-05T03:23:25;6.90;99.90
17815;DHT22;9031;50.974;11.330;2023-06-05T03:25:51;6.90;99.90
17815;DHT22;9031;50.974;11.330;2023-06-05T03:28:17;7.10;99.90
17815;DHT22;9031;50.974;11.330;2023-06-05T03:30:44;7.20;99.90
17815;DHT22;9031;50.974;11.330;2023-06-05T03:33:10;7.40;99.90
17815;DHT22;9031;50.974;11.330;2023-06-05T03:35:35;7.30;99.90
17815;DHT22;9031;50.974;11.330;2023-06-05T03:38:02;7.30;99.90
17815;DHT22;9031;50.974;11.330;2023-06-05T03:40:28;7.30;99.90
17815;DHT22;9031;50.974;11.330;2023-06-05T03:42:54;7.10;99.90
17815;DHT22;9031;50.974;11.330;2023-06-05T03:45:19;6.80;99.90
17815;DHT22;9031;50.974;11.330;2023-06-05T03:47:45;6.70;99.90
17815;DHT22;9031;50.974;11.330;2023-06-05T03:50:14;6.60;99.90
17815;DHT22;9031;50.974;11.330;2023-06-05T03:52:40;6.60;99.90
17815;DHT22;9031;50.974;11.330;2023-06-05T03:55:07;6.70;99.90
17815;DHT22;9031;50.974;11.330;2023-06-05T03:57:36;6.90;99.90
17815;DHT22;9031;50.974;11.330;2023-06-05T04:00:07;6.70;99.90
17815;DHT22;9031;50.974;11.330;2023-06-05T04:02:35;6.60;99.90
17815;DHT22;9031;50.974;11.330;2023-06-05T04:05:01;6.60;99.90
17815;DHT22;9031;50.974;11.330;2023-06-05T04:07:29;6.40;99.90
17815;DHT22;9031;50.974;11.330;2023-06-05T04:09:54;6.50;99.90
17815;DHT22;9031;50.974;11.330;2023-06-05T04:12:20;6.70;99.90
17815;DHT22;9031;50.974;11.330;2023-06-05T04:14:46;7.00;99.90
17815;DHT22;9031;50.974;11.330;2023-06-05T04:17:12;7.10;99.90
17815;DHT22;9031;50.974;11.330;2023-06-05T04:19:39;7.20;99.90
17815;DHT22;9031;50.974;11.330;2023-06-05T04:22:04;7.20;99.90
17815;DHT22;9031;50.974;11.330;2023-06-05T04:24:31;7.10;99.90
17815;DHT22;9031;50.974;11.330;2023-06-05T04:26:56;7.50;99.90
17815;DHT22;9031;50.974;11.330;2023-06-05T04:29:23;7.80;99.90
17815;DHT22;9031;50.974;11.330;2023-06-05T04:31:49;7.60;99.90
17815;DHT22;9031;50.974;11.330;2023-06-05T04:34:16;7.80;99.90
17815;DHT22;9031;50.974;11.330;2023-06-05T04:36:43;7.80;99.90
17815;DHT22;9031;50.974;11.330;2023-06-05T04:39:09;7.70;99.90
17815;DHT22;9031;50.974;11.330;2023-06-05T04:41:45;7.80;99.90
17815;DHT22;9031;50.974;11.330;2023-06-05T04:44:14;8.10;99.90
17815;DHT22;9031;50.974;11.330;2023-06-05T04:46:45;8.50;99.90
17815;DHT22;9031;50.974;11.330;2023-06-05T04:49:14;8.90;99.90
17815;DHT22;9031;50.974;11.330;2023-06-05T04:51:40;9.10;99.90
17815;DHT22;9031;50.974;11.330;2023-06-05T04:54:06;9.30;99.90
17815;DHT22;9031;50.974;11.330;2023-06-05T04:56:34;9.40;99.90
17815;DHT22;9031;50.974;11.330;2023-06-05T04:59:01;9.10;99.90
17815;DHT22;9031;50.974;11.330;2023-06-05T05:01:28;9.00;99.90
17815;DHT22;9031;50.974;11.330;2023-06-05T05:03:53;9.10;99.90
17815;DHT22;9031;50.974;11.330;2023-06-05T05:06:20;9.50;99.90
17815;DHT22;9031;50.974;11.330;2023-06-05T05:08:46;9.90;99.90
17815;DHT22;9031;50.974;11.330;2023-06-05T05:11:15;10.10;99.90
17815;DHT22;9031;50.974;11.330;2023-06-05T05:13:41;10.50;99.90
17815;DHT22;9031;50.974;11.330;2023-06-05T05:16:07;10.70;99.90
17815;DHT22;9031;50.974;11.330;2023-06-05T05:18:33;10.90;99.90
17815;DHT22;9031;50.974;11.330;2023-06-05T05:21:00;11.00;99.90
17815;DHT22;9031;50.974;11.330;2023-06-05T05:23:25;11.10;99.90
17815;DHT22;9031;50.974;11.330;2023-06-05T05:25:51;11.20;99.90
17815;DHT22;9031;50.974;11.330;2023-06-05T05:28:16;11.30;99.90
17815;DHT22;9031;50.974;11.330;2023-06-05T05:30:42;11.50;99.90
17815;DHT22;9031;50.974;11.330;2023-06-05T05:33:07;11.50;99.90
17815;DHT22;9031;50.974;11.330;2023-06-05T05:35:33;11.80;99.90
17815;DHT22;9031;50.974;11.330;2023-06-05T05:37:58;12.10;99.90
17815;DHT22;9031;50.974;11.330;2023-06-05T05:40:24;12.40;99.90
17815;DHT22;9031;50.974;11.330;2023-06-05T05:42:49;12.70;99.90
17815;DHT22;9031;50.974;11.330;2023-06-05T05:45:15;13.00;99.90
17815;DHT22;9031;50.974;11.330;2023-06-05T05:47:41;13.00;99.90
17815;DHT22;9031;50.974;11.330;2023-06-05T05:50:06;13.20;99.90
17815;DHT22;9031;50.974;11.330;2023-06-05T05:52:32;13.50;99.40
17815;DHT22;9031;50.974;11.330;2023-06-05T05:54:58;13.90;97.30
17815;DHT22;9031;50.974;11.330;2023-06-05T05:57:28;14.00;97.30
17815;DHT22;9031;50.974;11.330;2023-06-05T05:59:54;14.10;97.80
17815;DHT22;9031;50.974;11.330;2023-06-05T06:02:20;14.30;97.60
17815;DHT22;9031;50.974;11.330;2023-06-05T06:04:46;14.50;96.40
17815;DHT22;9031;50.974;11.330;2023-06-05T06:07:12;14.80;96.90
17815;DHT22;9031;50.974;11.330;2023-06-05T06:09:38;14.80;95.50
17815;DHT22;9031;50.974;11.330;2023-06-05T06:12:04;15.00;95.40
17815;DHT22;9031;50.974;11.330;2023-06-05T06:14:33;15.30;94.10
17815;DHT22;9031;50.974;11.330;2023-06-05T06:16:59;15.50;95.30
17815;DHT22;9031;50.974;11.330;2023-06-05T06:19:25;15.70;91.80
17815;DHT22;9031;50.974;11.330;2023-06-05T06:21:51;15.70;92.30
17815;DHT22;9031;50.974;11.330;2023-06-05T06:24:17;15.60;92.00
17815;DHT22;9031;50.974;11.330;2023-06-05T06:26:48;15.70;91.80
17815;DHT22;9031;50.974;11.330;2023-06-05T06:29:18;15.90;92.00
17815;DHT22;9031;50.974;11.330;2023-06-05T06:31:43;16.20;91.80
17815;DHT22;9031;50.974;11.330;2023-06-05T06:34:09;16.40;91.50
17815;DHT22;9031;50.974;11.330;2023-06-05T06:36:36;16.70;91.20
17815;DHT22;9031;50.974;11.330;2023-06-05T06:39:08;16.60;91.20
17815;DHT22;9031;50.974;11.330;2023-06-05T06:41:35;16.80;91.00
17815;DHT22;9031;50.974;11.330;2023-06-05T06:44:01;17.00;91.20
17815;DHT22;9031;50.974;11.330;2023-06-05T06:46:26;17.00;90.20
17815;DHT22;9031;50.974;11.330;2023-06-05T06:48:52;17.20;90.30
17815;DHT22;9031;50.974;11.330;2023-06-05T06:51:17;17.30;90.00
17815;DHT22;9031;50.974;11.330;2023-06-05T06:53:43;17.60;89.20
17815;DHT22;9031;50.974;11.330;2023-06-05T06:56:09;17.80;88.70
17815;DHT22;9031;50.974;11.330;2023-06-05T06:58:35;17.90;88.80
17815;DHT22;9031;50.974;11.330;2023-06-05T07:01:02;17.90;88.30
17815;DHT22;9031;50.974;11.330;2023-06-05T07:03:28;18.20;87.10
17815;DHT22;9031;50.974;11.330;2023-06-05T07:05:54;18.20;86.80
17815;DHT22;9031;50.974;11.330;2023-06-05T07:08:19;18.20;87.40
17815;DHT22;9031;50.974;11.330;2023-06-05T07:10:45;18.00;89.30
17815;DHT22;9031;50.974;11.330;2023-06-05T07:13:10;18.30;89.50
17815;DHT22;9031;50.974;11.330;2023-06-05T07:15:37;18.40;88.20
17815;DHT22;9031;50.974;11.330;2023-06-05T07:18:02;18.50;87.70
17815;DHT22;9031;50.974;11.330;2023-06-05T07:20:28;18.80;86.60
17815;DHT22;9031;50.974;11.330;2023-06-05T07:22:53;18.80;87.10
17815;DHT22;9031;50.974;11.330;2023-06-05T07:25:19;18.80;87.60
17815;DHT22;9031;50.974;11.330;2023-06-05T07:27:46;18.70;89.10
17815;DHT22;9031;50.974;11.330;2023-06-05T07:30:12;18.60;88.70
17815;DHT22;9031;50.974;11.330;2023-06-05T07:32:41;18.40;89.70
17815;DHT22;9031;50.974;11.330;2023-06-05T07:35:08;18.40;89.10
17815;DHT22;9031;50.974;11.330;2023-06-05T07:37:34;18.10;88.30
17815;DHT22;9031;50.974;11.330;2023-06-05T07:40:00;18.00;88.80
17815;DHT22;9031;50.974;11.330;2023-06-05T07:42:26;17.90;89.30
17815;DHT22;9031;50.974;11.330;2023-06-05T07:44:51;17.90;89.20
17815;DHT22;9031;50.974;11.330;2023-06-05T07:47:17;17.90;89.60
17815;DHT22;9031;50.974;11.330;2023-06-05T07:49:42;18.20;90.00
17815;DHT22;9031;50.974;11.330;2023-06-05T07:52:08;18.30;90.00
17815;DHT22;9031;50.974;11.330;2023-06-05T07:54:33;18.40;89.40
17815;DHT22;9031;50.974;11.330;2023-06-05T07:56:59;18.60;89.70
17815;DHT22;9031;50.974;11.330;2023-06-05T07:59:24;18.90;89.00
17815;DHT22;9031;50.974;11.330;2023-06-05T08:01:53;19.20;89.00
17815;DHT22;9031;50.974;11.330;2023-06-05T08:04:18;20.00;86.80
17815;DHT22;9031;50.974;11.330;2023-06-05T08:06:45;20.40;86.30
17815;DHT22;9031;50.974;11.330;2023-06-05T08:09:10;20.70;83.70
17815;DHT22;9031;50.974;11.330;2023-06-05T08:11:37;21.10;81.90
17815;DHT22;9031;50.974;11.330;2023-06-05T08:14:04;20.60;81.30
17815;DHT22;9031;50.974;11.330;2023-06-05T08:16:31;20.80;82.40
17815;DHT22;9031;50.974;11.330;2023-06-05T08:18:56;21.40;78.80
17815;DHT22;9031;50.974;11.330;2023-06-05T08:21:22;21.50;76.20
17815;DHT22;9031;50.974;11.330;2023-06-05T08:23:48;21.40;76.20
17815;DHT22;9031;50.974;11.330;2023-06-05T08:26:13;21.40;76.80
17815;DHT22;9031;50.974;11.330;2023-06-05T08:28:39;21.10;76.90
17815;DHT22;9031;50.974;11.330;2023-06-05T08:31:06;20.70;78.20
17815;DHT22;9031;50.974;11.330;2023-06-05T08:33:35;20.50;78.90
17815;DHT22;9031;50.974;11.330;2023-06-05T08:36:01;20.30;80.50
17815;DHT22;9031;50.974;11.330;2023-06-05T08:38:31;20.40;80.20
17815;DHT22;9031;50.974;11.330;2023-06-05T08:41:00;20.30;81.10
17815;DHT22;9031;50.974;11.330;2023-06-05T08:43:27;20.20;81.50
17815;DHT22;9031;50.974;11.330;2023-06-05T08:45:55;20.00;83.40
17815;DHT22;9031;50.974;11.330;2023-06-05T08:48:22;20.10;83.30
17815;DHT22;9031;50.974;11.330;2023-06-05T08:50:49;20.10;82.80
17815;DHT22;9031;50.974;11.330;2023-06-05T08:53:17;20.20;83.00
17815;DHT22;9031;50.974;11.330;2023-06-05T08:55:47;20.40;82.50
17815;DHT22;9031;50.974;11.330;2023-06-05T08:58:16;20.80;81.40
17815;DHT22;9031;50.974;11.330;2023-06-05T09:00:42;21.40;78.80
17815;DHT22;9031;50.974;11.330;2023-06-05T09:03:11;22.10;74.30
17815;DHT22;9031;50.974;11.330;2023-06-05T09:05:40;22.30;72.50
17815;DHT22;9031;50.974;11.330;2023-06-05T09:08:06;22.20;72.40
17815;DHT22;9031;50.974;11.330;2023-06-05T09:10:31;22.80;72.30
17815;DHT22;9031;50.974;11.330;2023-06-05T09:12:59;22.90;69.80
17815;DHT22;9031;50.974;11.330;2023-06-05T09:15:33;23.10;67.20
17815;DHT22;9031;50.974;11.330;2023-06-05T09:18:03;22.90;67.00
17815;DHT22;9031;50.974;11.330;2023-06-05T09:20:29;23.20;67.30
17815;DHT22;9031;50.974;11.330;2023-06-05T09:22:56;23.70;65.10
17815;DHT22;9031;50.974;11.330;2023-06-05T09:25:22;23.70;65.20
17815;DHT22;9031;50.974;11.330;2023-06-05T09:28:05;23.70;64.80
17815;DHT22;9031;50.974;11.330;2023-06-05T09:30:31;23.30;66.30
17815;DHT22;9031;50.974;11.330;2023-06-05T09:33:08;23.20;66.30
17815;DHT22;9031;50.974;11.330;2023-06-05T09:35:34;23.20;66.70
17815;DHT22;9031;50.974;11.330;2023-06-05T09:38:05;22.90;66.50
17815;DHT22;9031;50.974;11.330;2023-06-05T09:40:49;22.70;67.00
17815;DHT22;9031;50.974;11.330;2023-06-05T09:43:21;22.50;67.20
17815;DHT22;9031;50.974;11.330;2023-06-05T09:45:48;22.60;68.00
17815;DHT22;9031;50.974;11.330;2023-06-05T09:48:14;22.70;67.10
17815;DHT22;9031;50.974;11.330;2023-06-05T09:50:40;22.90;67.30
17815;DHT22;9031;50.974;11.330;2023-06-05T09:53:08;23.10;67.80
17815;DHT22;9031;50.974;11.330;2023-06-05T09:55:34;23.40;64.00
17815;DHT22;9031;50.974;11.330;2023-06-05T09:58:03;23.50;63.10
17815;DHT22;9031;50.974;11.330;2023-06-05T10:00:36;23.90;62.70
17815;DHT22;9031;50.974;11.330;2023-06-05T10:03:07;23.90;62.20
17815;DHT22;9031;50.974;11.330;2023-06-05T10:05:37;24.10;61.60
17815;DHT22;9031;50.974;11.330;2023-06-05T10:08:03;23.70;61.70
17815;DHT22;9031;50.974;11.330;2023-06-05T10:10:30;23.50;62.90
17815;DHT22;9031;50.974;11.330;2023-06-05T10:12:56;23.70;63.10
17815;DHT22;9031;50.974;11.330;2023-06-05T10:15:24;23.80;61.90
17815;DHT22;9031;50.974;11.330;2023-06-05T10:17:50;23.90;61.70
17815;DHT22;9031;50.974;11.330;2023-06-05T10:20:16;24.50;62.20
17815;DHT22;9031;50.974;11.330;2023-06-05T10:22:43;25.10;59.20
17815;DHT22;9031;50.974;11.330;2023-06-05T10:25:10;25.60;58.70
17815;DHT22;9031;50.974;11.330;2023-06-05T10:38:24;24.10;60.80
17815;DHT22;9031;50.974;11.330;2023-06-05T10:40:55;24.00;62.10
17815;DHT22;9031;50.974;11.330;2023-06-05T10:45:55;24.20;59.30
17815;DHT22;9031;50.974;11.330;2023-06-05T10:48:20;24.40;59.00
17815;DHT22;9031;50.974;11.330;2023-06-05T10:50:46;25.40;57.00
17815;DHT22;9031;50.974;11.330;2023-06-05T10:53:46;27.10;53.70
17815;DHT22;9031;50.974;11.330;2023-06-05T10:59:15;27.10;54.00
17815;DHT22;9031;50.974;11.330;2023-06-05T11:01:41;27.20;53.50
17815;DHT22;9031;50.974;11.330;2023-06-05T11:04:07;27.30;53.40
17815;DHT22;9031;50.974;11.330;2023-06-05T11:06:33;27.70;53.20
17815;DHT22;9031;50.974;11.330;2023-06-05T11:09:14;28.80;51.00
17815;DHT22;9031;50.974;11.330;2023-06-05T11:11:55;28.80;51.20
17815;DHT22;9031;50.974;11.330;2023-06-05T11:14:22;27.80;51.30
17815;DHT22;9031;50.974;11.330;2023-06-05T11:16:48;26.90;52.40
17815;DHT22;9031;50.974;11.330;2023-06-05T11:22:10;25.90;56.00
17815;DHT22;9031;50.974;11.330;2023-06-05T11:24:37;26.00;54.90
17815;DHT22;9031;50.974;11.330;2023-06-05T11:27:04;26.00;54.30
17815;DHT22;9031;50.974;11.330;2023-06-05T11:29:31;26.00;54.00
17815;DHT22;9031;50.974;11.330;2023-06-05T11:31:57;25.50;54.70
17815;DHT22;9031;50.974;11.330;2023-06-05T11:34:23;25.30;55.80
17815;DHT22;9031;50.974;11.330;2023-06-05T11:36:49;25.00;55.40
17815;DHT22;9031;50.974;11.330;2023-06-05T11:39:14;24.50;57.40
17815;DHT22;9031;50.974;11.330;2023-06-05T11:41:47;24.50;57.60
17815;DHT22;9031;50.974;11.330;2023-06-05T11:44:14;24.40;58.20
17815;DHT22;9031;50.974;11.330;2023-06-05T11:46:41;24.90;57.80
17815;DHT22;9031;50.974;11.330;2023-06-05T11:49:22;25.00;57.40
17815;DHT22;9031;50.974;11.330;2023-06-05T11:51:48;25.30;56.50
17815;DHT22;9031;50.974;11.330;2023-06-05T11:54:23;25.60;55.90
17815;DHT22;9031;50.974;11.330;2023-06-05T11:56:49;26.00;54.80
17815;DHT22;9031;50.974;11.330;2023-06-05T11:59:17;26.90;53.10
17815;DHT22;9031;50.974;11.330;2023-06-05T12:01:44;27.50;53.00
17815;DHT22;9031;50.974;11.330;2023-06-05T12:04:09;28.90;51.30
17815;DHT22;9031;50.974;11.330;2023-06-05T12:06:42;30.50;48.00
17815;DHT22;9031;50.974;11.330;2023-06-05T12:09:12;32.80;44.10
17815;DHT22;9031;50.974;11.330;2023-06-05T12:11:39;33.60;41.70
17815;DHT22;9031;50.974;11.330;2023-06-05T12:14:05;34.50;41.20
17815;DHT22;9031;50.974;11.330;2023-06-05T12:16:35;34.80;39.60
17815;DHT22;9031;50.974;11.330;2023-06-05T12:19:03;33.30;40.40
17815;DHT22;9031;50.974;11.330;2023-06-05T12:21:35;32.80;41.20
17815;DHT22;9031;50.974;11.330;2023-06-05T12:24:02;32.90;40.90
17815;DHT22;9031;50.974;11.330;2023-06-05T12:26:28;33.30;39.20
17815;DHT22;9031;50.974;11.330;2023-06-05T12:29:03;33.60;38.60
17815;DHT22;9031;50.974;11.330;2023-06-05T12:31:35;31.40;40.40
17815;DHT22;9031;50.974;11.330;2023-06-05T12:34:02;28.40;44.10
17815;DHT22;9031;50.974;11.330;2023-06-05T12:36:27;27.50;46.20
17815;DHT22;9031;50.974;11.330;2023-06-05T12:38:54;27.40;46.60
17815;DHT22;9031;50.974;11.330;2023-06-05T12:41:20;27.20;47.40
17815;DHT22;9031;50.974;11.330;2023-06-05T12:43:45;27.00;47.30
17815;DHT22;9031;50.974;11.330;2023-06-05T12:46:11;26.30;48.90
17815;DHT22;9031;50.974;11.330;2023-06-05T12:48:38;26.50;48.90
17815;DHT22;9031;50.974;11.330;2023-06-05T12:51:04;26.60;48.50
17815;DHT22;9031;50.974;11.330;2023-06-05T12:53:30;27.10;48.20
17815;DHT22;9031;50.974;11.330;2023-06-05T12:55:56;27.10;47.90
17815;DHT22;9031;50.974;11.330;2023-06-05T12:58:21;26.90;48.20
17815;DHT22;9031;50.974;11.330;2023-06-05T13:00:47;27.30;47.80
17815;DHT22;9031;50.974;11.330;2023-06-05T13:03:13;28.70;46.40
17815;DHT22;9031;50.974;11.330;2023-06-05T13:05:39;28.30;47.00
17815;DHT22;9031;50.974;11.330;2023-06-05T13:08:05;29.10;45.30
17815;DHT22;9031;50.974;11.330;2023-06-05T13:10:31;28.50;45.80
17815;DHT22;9031;50.974;11.330;2023-06-05T13:12:57;27.70;46.80
17815;DHT22;9031;50.974;11.330;2023-06-05T13:15:22;26.90;48.70
17815;DHT22;9031;50.974;11.330;2023-06-05T13:17:48;27.70;48.40
17815;DHT22;9031;50.974;11.330;2023-06-05T13:20:15;28.80;46.60
17815;DHT22;9031;50.974;11.330;2023-06-05T13:22:40;30.70;43.50
17815;DHT22;9031;50.974;11.330;2023-06-05T13:25:07;32.00;41.50
17815;DHT22;9031;50.974;11.330;2023-06-05T13:27:33;33.10;39.70
17815;DHT22;9031;50.974;11.330;2023-06-05T13:29:59;32.90;40.20
17815;DHT22;9031;50.974;11.330;2023-06-05T13:32:24;33.30;40.10
17815;DHT22;9031;50.974;11.330;2023-06-05T13:34:50;33.30;39.20
17815;DHT22;9031;50.974;11.330;2023-06-05T13:37:16;32.80;39.30
17815;DHT22;9031;50.974;11.330;2023-06-05T13:39:41;33.30;39.60
17815;DHT22;9031;50.974;11.330;2023-06-05T13:42:07;33.90;38.80
17815;DHT22;9031;50.974;11.330;2023-06-05T13:44:33;34.20;39.00
17815;DHT22;9031;50.974;11.330;2023-06-05T13:46:59;34.90;37.60
17815;DHT22;9031;50.974;11.330;2023-06-05T13:49:29;34.90;36.60
17815;DHT22;9031;50.974;11.330;2023-06-05T13:51:55;34.90;36.50
17815;DHT22;9031;50.974;11.330;2023-06-05T13:54:20;34.60;37.30
17815;DHT22;9031;50.974;11.330;2023-06-05T13:56:46;34.20;37.40
17815;DHT22;9031;50.974;11.330;2023-06-05T13:59:11;34.30;38.00
17815;DHT22;9031;50.974;11.330;2023-06-05T14:01:36;33.80;38.00
17815;DHT22;9031;50.974;11.330;2023-06-05T14:04:02;34.70;38.60
17815;DHT22;9031;50.974;11.330;2023-06-05T14:06:27;34.60;37.40
17815;DHT22;9031;50.974;11.330;2023-06-05T14:08:53;34.60;37.40
17815;DHT22;9031;50.974;11.330;2023-06-05T14:11:18;34.20;38.10
17815;DHT22;9031;50.974;11.330;2023-06-05T14:13:44;33.20;39.10
17815;DHT22;9031;50.974;11.330;2023-06-05T14:16:10;32.30;40.60
17815;DHT22;9031;50.974;11.330;2023-06-05T14:18:37;31.30;41.50
17815;DHT22;9031;50.974;11.330;2023-06-05T14:21:02;30.00;43.20
17815;DHT22;9031;50.974;11.330;2023-06-05T14:23:28;29.50;43.30
17815;DHT22;9031;50.974;11.330;2023-06-05T14:25:53;28.70;45.90
17815;DHT22;9031;50.974;11.330;2023-06-05T14:28:19;29.00;45.90
17815;DHT22;9031;50.974;11.330;2023-06-05T14:30:45;29.40;44.20
17815;DHT22;9031;50.974;11.330;2023-06-05T14:33:11;28.80;45.70
17815;DHT22;9031;50.974;11.330;2023-06-05T14:35:37;30.40;43.60
17815;DHT22;9031;50.974;11.330;2023-06-05T14:38:02;32.20;41.40
17815;DHT22;9031;50.974;11.330;2023-06-05T14:40:28;32.20;40.60
17815;DHT22;9031;50.974;11.330;2023-06-05T14:42:53;33.40;39.30
17815;DHT22;9031;50.974;11.330;2023-06-05T14:45:19;33.20;39.30
17815;DHT22;9031;50.974;11.330;2023-06-05T14:47:44;33.70;38.80
17815;DHT22;9031;50.974;11.330;2023-06-05T14:50:12;32.50;39.60
17815;DHT22;9031;50.974;11.330;2023-06-05T14:52:37;31.30;40.50
17815;DHT22;9031;50.974;11.330;2023-06-05T14:55:03;30.30;42.70
17815;DHT22;9031;50.974;11.330;2023-06-05T14:57:29;31.50;41.00
17815;DHT22;9031;50.974;11.330;2023-06-05T14:59:54;31.60;40.60
17815;DHT22;9031;50.974;11.330;2023-06-05T15:02:21;32.50;40.30
17815;DHT22;9031;50.974;11.330;2023-06-05T15:04:48;33.10;40.00
17815;DHT22;9031;50.974;11.330;2023-06-05T15:07:18;34.20;37.80
17815;DHT22;9031;50.974;11.330;2023-06-05T15:09:45;32.50;38.70
17815;DHT22;9031;50.974;11.330;2023-06-05T15:12:11;30.00;41.80
17815;DHT22;9031;50.974;11.330;2023-06-05T15:14:37;28.40;44.30
17815;DHT22;9031;50.974;11.330;2023-06-05T15:17:02;28.10;46.30
17815;DHT22;9031;50.974;11.330;2023-06-05T15:19:28;29.70;44.40
17815;DHT22;9031;50.974;11.330;2023-06-05T15:21:53;31.10;42.60
17815;DHT22;9031;50.974;11.330;2023-06-05T15:24:19;32.00;41.50
17815;DHT22;9031;50.974;11.330;2023-06-05T15:26:44;31.90;41.70
17815;DHT22;9031;50.974;11.330;2023-06-05T15:29:10;30.90;41.80
17815;DHT22;9031;50.974;11.330;2023-06-05T15:31:35;29.20;43.50
17815;DHT22;9031;50.974;11.330;2023-06-05T15:34:01;29.50;44.00
17815;DHT22;9031;50.974;11.330;2023-06-05T15:36:27;30.10;42.90
17815;DHT22;9031;50.974;11.330;2023-06-05T15:38:52;29.70;42.80
17815;DHT22;9031;50.974;11.330;2023-06-05T15:41:18;29.70;43.70
17815;DHT22;9031;50.974;11.330;2023-06-05T15:43:43;30.90;42.50
17815;DHT22;9031;50.974;11.330;2023-06-05T15:46:09;31.80;41.20
17815;DHT22;9031;50.974;11.330;2023-06-05T15:48:34;31.90;41.00
17815;DHT22;9031;50.974;11.330;2023-06-05T15:51:00;30.90;41.00
17815;DHT22;9031;50.974;11.330;2023-06-05T15:53:25;29.80;42.80
17815;DHT22;9031;50.974;11.330;2023-06-05T15:55:51;30.00;43.20